sensor_id;sensor_type;location;lat;lon;timestamp;pressure;altitude;pressure_sealevel;temperature;humidity
14800;BME280;7491;57.750;11.970;2023-08-31T00:01:16;74679.97;;;-142.11;100.00
14800;BME280;7491;57.750;11.970;2023-08-31T00:03:45;74673.84;;;-142.11;100.00
14800;BME280;7491;57.750;11.970;2023-08-31T00:06:11;74673.84;;;-142.11;100.00
14800;BME280;7491;57.750;11.970;2023-08-31T00:08:38;74671.81;;;-142.11;100.00
14800;BME280;7491;57.750;11.970;2023-08-31T00:11:05;74671.81;;;-142.11;100.00
14800;BME280;7491;57.750;11.970;2023-08-31T00:13:32;74679.97;;;-142.11;100.00
14800;BME280;7491;57.750;11.970;2023-08-31T00:15:58;74702.38;;;-142.11;100.00
14800;BME280;7491;57.750;11.970;2023-08-31T00:18:25;74702.38;;;-142.11;100.00
14800;BME280;7491;57.750;11.970;2023-08-31T00:20:54;74704.41;;;-142.11;100.00
14800;BME280;7491;57.750;11.970;2023-08-31T00:23:21;74702.38;;;-142.11;100.00
14800;BME280;7491;57.750;11.970;2023-08-31T00:25:48;74704.41;;;-142.11;100.00
14800;BME280;7491;57.750;11.970;2023-08-31T00:28:16;74710.53;;;-142.11;100.00
14800;BME280;7491;57.750;11.970;2023-08-31T00:30:43;74728.88;;;-142.11;100.00
14800;BME280;7491;57.750;11.970;2023-08-31T00:33:10;74734.97;;;-142.11;100.00
14800;BME280;7491;57.750;11.970;2023-08-31T00:35:37;74753.31;;;-142.11;100.00
14800;BME280;7491;57.750;11.970;2023-08-31T00:38:10;74763.50;;;-142.11;100.00
14800;BME280;7491;57.750;11.970;2023-08-31T00:40:39;74771.66;;;-142.11;100.00
14800;BME280;7491;57.750;11.970;2023-08-31T00:43:06;74759.44;;;-142.11;100.00
14800;BME280;7491;57.750;11.970;2023-08-31T00:45:33;74767.56;;;-142.11;100.00
14800;BME280;7491;57.750;11.970;2023-08-31T00:48:00;74771.66;;;-142.11;100.00
14800;BME280;7491;57.750;11.970;2023-08-31T00:50:28;74767.56;;;-142.11;100.00
14800;BME280;7491;57.750;11.970;2023-08-31T00:52:55;74775.72;;;-142.11;100.00
14800;BME280;7491;57.750;11.970;2023-08-31T00:55:23;74773.69;;;-142.11;100.00
14800;BME280;7491;57.750;11.970;2023-08-31T00:57:52;74767.56;;;-142.11;100.00
14800;BME280;7491;57.750;11.970;2023-08-31T01:00:19;74781.84;;;-142.11;100.00
14800;BME280;7491;57.750;11.970;2023-08-31T01:02:52;74790.00;;;-142.11;100.00
14800;BME280;7491;57.750;11.970;2023-08-31T01:05:29;74804.25;;;-142.11;100.00
14800;BME280;7491;57.750;11.970;2023-08-31T01:08:12;74794.06;;;-142.11;100.00
14800;BME280;7491;57.750;11.970;2023-08-31T01:10:53;74792.03;;;-142.11;100.00
14800;BME280;7491;57.750;11.970;2023-08-31T01:13:24;74806.28;;;-142.11;100.00
14800;BME280;7491;57.750;11.970;2023-08-31T01:15:53;74822.59;;;-142.11;100.00
14800;BME280;7491;57.750;11.970;2023-08-31T01:18:22;74832.78;;;-142.11;100.00
14800;BME280;7491;57.750;11.970;2023-08-31T01:20:57;74834.81;;;-142.11;100.00
14800;BME280;7491;57.750;11.970;2023-08-31T01:23:29;74824.63;;;-142.11;100.00
14800;BME280;7491;57.750;11.970;2023-08-31T01:25:58;74818.53;;;-142.11;100.00
14800;BME280;7491;57.750;11.970;2023-08-31T01:28:25;74820.56;;;-142.11;100.00
14800;BME280;7491;57.750;11.970;2023-08-31T01:30:52;74824.63;;;-142.11;100.00
14800;BME280;7491;57.750;11.970;2023-08-31T01:33:19;74826.66;;;-142.11;100.00
14800;BME280;7491;57.750;11.970;2023-08-31T01:35:49;74810.38;;;-142.11;100.00
14800;BME280;7491;57.750;11.970;2023-08-31T01:38:21;74816.47;;;-142.11;100.00
14800;BME280;7491;57.750;11.970;2023-08-31T01:40:54;74808.31;;;-142.11;100.00
14800;BME280;7491;57.750;11.970;2023-08-31T01:43:24;74808.31;;;-142.11;100.00
14800;BME280;7491;57.750;11.970;2023-08-31T01:45:51;74818.53;;;-142.11;100.00
14800;BME280;7491;57.750;11.970;2023-08-31T01:48:18;74814.44;;;-142.11;100.00
14800;BME280;7491;57.750;11.970;2023-08-31T01:50:47;74810.38;;;-142.11;100.00
14800;BME280;7491;57.750;11.970;2023-08-31T01:53:14;74808.31;;;-142.11;100.00
14800;BME280;7491;57.750;11.970;2023-08-31T01:55:40;74820.56;;;-142.11;100.00
14800;BME280;7491;57.750;11.970;2023-08-31T01:58:07;74845.00;;;-142.11;100.00
14800;BME280;7491;57.750;11.970;2023-08-31T02:00:35;74863.34;;;-142.11;100.00
14800;BME280;7491;57.750;11.970;2023-08-31T02:03:04;74840.94;;;-142.11;100.00
14800;BME280;7491;57.750;11.970;2023-08-31T02:05:31;74845.00;;;-142.11;100.00
14800;BME280;7491;57.750;11.970;2023-08-31T02:07:58;74847.03;;;-142.11;100.00
14800;BME280;7491;57.750;11.970;2023-08-31T02:10:25;74847.03;;;-142.11;100.00
14800;BME280;7491;57.750;11.970;2023-08-31T02:12:52;74845.00;;;-142.11;100.00
14800;BME280;7491;57.750;11.970;2023-08-31T02:15:19;74869.47;;;-142.11;100.00
14800;BME280;7491;57.750;11.970;2023-08-31T02:17:47;74865.38;;;-142.11;100.00
14800;BME280;7491;57.750;11.970;2023-08-31T02:20:14;74849.09;;;-142.11;100.00
14800;BME280;7491;57.750;11.970;2023-08-31T02:22:40;74845.00;;;-142.11;100.00
14800;BME280;7491;57.750;11.970;2023-08-31T02:25:08;74861.31;;;-142.11;100.00
14800;BME280;7491;57.750;11.970;2023-08-31T02:27:34;74849.09;;;-142.11;100.00
14800;BME280;7491;57.750;11.970;2023-08-31T02:30:01;74845.00;;;-142.11;100.00
14800;BME280;7491;57.750;11.970;2023-08-31T02:32:30;74836.84;;;-142.11;100.00
14800;BME280;7491;57.750;11.970;2023-08-31T02:34:58;74830.75;;;-142.11;100.00
14800;BME280;7491;57.750;11.970;2023-08-31T02:37:24;74824.63;;;-142.11;100.00
14800;BME280;7491;57.750;11.970;2023-08-31T02:39:51;74816.47;;;-142.11;100.00
14800;BME280;7491;57.750;11.970;2023-08-31T02:42:18;74816.47;;;-142.11;100.00
14800;BME280;7491;57.750;11.970;2023-08-31T02:44:45;74824.63;;;-142.11;100.00
14800;BME280;7491;57.750;11.970;2023-08-31T02:47:11;74814.44;;;-142.11;100.00
14800;BME280;7491;57.750;11.970;2023-08-31T02:49:38;74828.72;;;-142.11;100.00
14800;BME280;7491;57.750;11.970;2023-08-31T02:52:06;74838.91;;;-142.11;100.00
14800;BME280;7491;57.750;11.970;2023-08-31T02:54:34;74838.91;;;-142.11;100.00
14800;BME280;7491;57.750;11.970;2023-08-31T02:57:00;74840.94;;;-142.11;100.00
14800;BME280;7491;57.750;11.970;2023-08-31T02:59:27;74851.13;;;-142.11;100.00
14800;BME280;7491;57.750;11.970;2023-08-31T03:01:54;74853.16;;;-142.11;100.00
14800;BME280;7491;57.750;11.970;2023-08-31T03:04:21;74849.09;;;-142.11;100.00
14800;BME280;7491;57.750;11.970;2023-08-31T03:06:48;74859.28;;;-142.11;100.00
14800;BME280;7491;57.750;11.970;2023-08-31T03:09:16;74857.22;;;-142.11;100.00
14800;BME280;7491;57.750;11.970;2023-08-31T03:11:42;74857.22;;;-142.11;100.00
14800;BME280;7491;57.750;11.970;2023-08-31T03:14:09;74845.00;;;-142.11;100.00
14800;BME280;7491;57.750;11.970;2023-08-31T03:16:35;74877.63;;;-142.11;100.00
14800;BME280;7491;57.750;11.970;2023-08-31T03:19:02;74879.66;;;-142.11;100.00
14800;BME280;7491;57.750;11.970;2023-08-31T03:21:29;74865.38;;;-142.11;100.00
14800;BME280;7491;57.750;11.970;2023-08-31T03:23:55;74875.56;;;-142.11;100.00
14800;BME280;7491;57.750;11.970;2023-08-31T03:26:23;74875.56;;;-142.11;100.00
14800;BME280;7491;57.750;11.970;2023-08-31T03:28:50;74885.75;;;-142.11;100.00
14800;BME280;7491;57.750;11.970;2023-08-31T03:31:17;74863.34;;;-142.11;100.00
14800;BME280;7491;57.750;11.970;2023-08-31T03:33:43;74867.44;;;-142.11;100.00
14800;BME280;7491;57.750;11.970;2023-08-31T03:36:10;74865.38;;;-142.11;100.00
14800;BME280;7491;57.750;11.970;2023-08-31T03:38:37;74859.28;;;-142.11;100.00
14800;BME280;7491;57.750;11.970;2023-08-31T03:41:03;74861.31;;;-142.11;100.00
14800;BME280;7491;57.750;11.970;2023-08-31T03:43:31;74845.00;;;-142.11;100.00
14800;BME280;7491;57.750;11.970;2023-08-31T03:45:59;74845.00;;;-142.11;100.00
14800;BME280;7491;57.750;11.970;2023-08-31T03:48:26;74849.09;;;-142.11;100.00
14800;BME280;7491;57.750;11.970;2023-08-31T03:50:54;74847.03;;;-142.11;100.00
14800;BME280;7491;57.750;11.970;2023-08-31T03:53:21;74840.94;;;-142.11;100.00
14800;BME280;7491;57.750;11.970;2023-08-31T03:55:48;74851.13;;;-142.11;100.00
14800;BME280;7491;57.750;11.970;2023-08-31T03:58:14;74847.03;;;-142.11;100.00
14800;BME280;7491;57.750;11.970;2023-08-31T04:00:43;74849.09;;;-142.11;100.00
14800;BME280;7491;57.750;11.970;2023-08-31T04:03:10;74875.56;;;-142.11;100.00
14800;BME280;7491;57.750;11.970;2023-08-31T04:05:36;74895.94;;;-142.11;100.00
14800;BME280;7491;57.750;11.970;2023-08-31T04:08:03;74883.72;;;-142.11;100.00
14800;BME280;7491;57.750;11.970;2023-08-31T04:10:30;74883.72;;;-142.11;100.00
14800;BME280;7491;57.750;11.970;2023-08-31T04:12:58;74881.69;;;-142.11;100.00
14800;BME280;7491;57.750;11.970;2023-08-31T04:15:25;74881.69;;;-142.11;100.00
14800;BME280;7491;57.750;11.970;2023-08-31T04:17:53;74881.69;;;-142.11;100.00
14800;BME280;7491;57.750;11.970;2023-08-31T04:20:20;74865.38;;;-142.11;100.00
14800;BME280;7491;57.750;11.970;2023-08-31T04:22:46;74861.31;;;-142.11;100.00
14800;BME280;7491;57.750;11.970;2023-08-31T04:25:13;74865.38;;;-142.11;100.00
14800;BME280;7491;57.750;11.970;2023-08-31T04:27:40;74853.16;;;-142.11;100.00
14800;BME280;7491;57.750;11.970;2023-08-31T04:30:07;74838.91;;;-142.11;100.00
14800;BME280;7491;57.750;11.970;2023-08-31T04:32:34;74838.91;;;-142.11;100.00
14800;BME280;7491;57.750;11.970;2023-08-31T04:35:03;74855.19;;;-142.11;100.00
14800;BME280;7491;57.750;11.970;2023-08-31T04:37:30;74851.13;;;-142.11;100.00
14800;BME280;7491;57.750;11.970;2023-08-31T04:39:57;74840.94;;;-142.11;100.00
14800;BME280;7491;57.750;11.970;2023-08-31T04:42:24;74836.84;;;-142.11;100.00
14800;BME280;7491;57.750;11.970;2023-08-31T04:44:50;74828.72;;;-142.11;100.00
14800;BME280;7491;57.750;11.970;2023-08-31T04:47:17;74818.53;;;-142.11;100.00
14800;BME280;7491;57.750;11.970;2023-08-31T04:49:44;74816.47;;;-142.11;100.00
14800;BME280;7491;57.750;11.970;2023-08-31T04:52:12;74808.31;;;-142.11;100.00
14800;BME280;7491;57.750;11.970;2023-08-31T04:54:39;74794.06;;;-142.11;100.00
14800;BME280;7491;57.750;11.970;2023-08-31T04:57:05;74787.94;;;-142.11;100.00
14800;BME280;7491;57.750;11.970;2023-08-31T04:59:32;74785.91;;;-142.11;100.00
14800;BME280;7491;57.750;11.970;2023-08-31T05:01:59;74787.94;;;-142.11;100.00
14800;BME280;7491;57.750;11.970;2023-08-31T05:04:26;74777.75;;;-142.11;100.00
14800;BME280;7491;57.750;11.970;2023-08-31T05:06:53;74771.66;;;-142.11;100.00
14800;BME280;7491;57.750;11.970;2023-08-31T05:09:24;74777.75;;;-142.11;100.00
14800;BME280;7491;57.750;11.970;2023-08-31T05:11:51;74777.75;;;-142.11;100.00
14800;BME280;7491;57.750;11.970;2023-08-31T05:14:17;74785.91;;;-142.11;100.00
14800;BME280;7491;57.750;11.970;2023-08-31T05:16:44;74763.50;;;-142.11;100.00
14800;BME280;7491;57.750;11.970;2023-08-31T05:19:11;74761.47;;;-142.11;100.00
14800;BME280;7491;57.750;11.970;2023-08-31T05:21:38;74757.38;;;-142.11;100.00
14800;BME280;7491;57.750;11.970;2023-08-31T05:24:05;74765.53;;;-142.11;100.00
14800;BME280;7491;57.750;11.970;2023-08-31T05:26:33;74769.63;;;-142.11;100.00
14800;BME280;7491;57.750;11.970;2023-08-31T05:29:00;74765.53;;;-142.11;100.00
14800;BME280;7491;57.750;11.970;2023-08-31T05:31:26;74787.94;;;-142.11;100.00
14800;BME280;7491;57.750;11.970;2023-08-31T05:33:53;74785.91;;;-142.11;100.00
14800;BME280;7491;57.750;11.970;2023-08-31T05:36:19;74790.00;;;-142.11;100.00
14800;BME280;7491;57.750;11.970;2023-08-31T05:38:46;74790.00;;;-142.11;100.00
14800;BME280;7491;57.750;11.970;2023-08-31T05:41:13;74794.06;;;-142.11;100.00
14800;BME280;7491;57.750;11.970;2023-08-31T05:43:41;74767.56;;;-142.11;100.00
14800;BME280;7491;57.750;11.970;2023-08-31T05:46:08;74767.56;;;-142.11;100.00
14800;BME280;7491;57.750;11.970;2023-08-31T05:48:35;74755.34;;;-142.11;100.00
14800;BME280;7491;57.750;11.970;2023-08-31T05:51:02;74749.25;;;-142.11;100.00
14800;BME280;7491;57.750;11.970;2023-08-31T05:53:30;74739.03;;;-142.11;100.00
14800;BME280;7491;57.750;11.970;2023-08-31T05:55:57;74732.94;;;-142.11;100.00
14800;BME280;7491;57.750;11.970;2023-08-31T05:58:29;74726.81;;;-142.11;100.00
14800;BME280;7491;57.750;11.970;2023-08-31T06:01:00;74722.75;;;-142.11;100.00
14800;BME280;7491;57.750;11.970;2023-08-31T06:03:32;74718.66;;;-142.11;100.00
14800;BME280;7491;57.750;11.970;2023-08-31T06:05:59;74708.47;;;-142.11;100.00
14800;BME280;7491;57.750;11.970;2023-08-31T06:08:29;74700.34;;;-142.11;100.00
14800;BME280;7491;57.750;11.970;2023-08-31T06:10:56;74690.16;;;-142.11;100.00
14800;BME280;7491;57.750;11.970;2023-08-31T06:13:26;74677.91;;;-142.11;100.00
14800;BME280;7491;57.750;11.970;2023-08-31T06:15:53;74673.84;;;-142.11;100.00
14800;BME280;7491;57.750;11.970;2023-08-31T06:18:22;74673.84;;;-142.11;100.00
14800;BME280;7491;57.750;11.970;2023-08-31T06:20:49;74647.34;;;-142.11;100.00
14800;BME280;7491;57.750;11.970;2023-08-31T06:23:15;74647.34;;;-142.11;100.00
14800;BME280;7491;57.750;11.970;2023-08-31T06:25:42;74626.97;;;-142.11;100.00
14800;BME280;7491;57.750;11.970;2023-08-31T06:28:11;74610.69;;;-142.11;100.00
14800;BME280;7491;57.750;11.970;2023-08-31T06:30:37;74602.53;;;-142.11;100.00
14800;BME280;7491;57.750;11.970;2023-08-31T06:33:05;74610.69;;;-142.11;100.00
14800;BME280;7491;57.750;11.970;2023-08-31T06:35:33;74612.72;;;-142.11;100.00
14800;BME280;7491;57.750;11.970;2023-08-31T06:38:00;74596.41;;;-142.11;100.00
14800;BME280;7491;57.750;11.970;2023-08-31T06:40:30;74604.56;;;-142.11;100.00
14800;BME280;7491;57.750;11.970;2023-08-31T06:42:57;74580.13;;;-142.11;100.00
14800;BME280;7491;57.750;11.970;2023-08-31T06:45:23;74574.00;;;-142.11;100.00
14800;BME280;7491;57.750;11.970;2023-08-31T06:47:50;74584.19;;;-142.11;100.00
14800;BME280;7491;57.750;11.970;2023-08-31T06:50:17;74567.88;;;-142.11;100.00
14800;BME280;7491;57.750;11.970;2023-08-31T06:52:45;74555.66;;;-142.11;100.00
14800;BME280;7491;57.750;11.970;2023-08-31T06:55:12;74551.59;;;-142.11;100.00
14800;BME280;7491;57.750;11.970;2023-08-31T06:57:38;74551.59;;;-142.11;100.00
14800;BME280;7491;57.750;11.970;2023-08-31T07:00:06;74533.25;;;-142.11;100.00
14800;BME280;7491;57.750;11.970;2023-08-31T07:02:33;74500.66;;;-142.11;100.00
14800;BME280;7491;57.750;11.970;2023-08-31T07:05:01;74474.16;;;-142.11;100.00
14800;BME280;7491;57.750;11.970;2023-08-31T07:07:29;74463.97;;;-142.11;100.00
14800;BME280;7491;57.750;11.970;2023-08-31T07:09:57;74443.59;;;-142.11;100.00
14800;BME280;7491;57.750;11.970;2023-08-31T07:12:24;74441.56;;;-142.11;100.00
14800;BME280;7491;57.750;11.970;2023-08-31T07:14:50;74427.31;;;-142.11;100.00
14800;BME280;7491;57.750;11.970;2023-08-31T07:17:17;74433.41;;;-142.11;100.00
14800;BME280;7491;57.750;11.970;2023-08-31T07:19:44;74421.19;;;-142.11;100.00
14800;BME280;7491;57.750;11.970;2023-08-31T07:22:11;74382.47;;;-142.11;100.00
14800;BME280;7491;57.750;11.970;2023-08-31T07:24:37;74366.19;;;-142.11;100.00
14800;BME280;7491;57.750;11.970;2023-08-31T07:27:07;74372.28;;;-142.11;100.00
14800;BME280;7491;57.750;11.970;2023-08-31T07:29:34;74398.78;;;-142.11;100.00
14800;BME280;7491;57.750;11.970;2023-08-31T07:32:01;74384.50;;;-142.11;100.00
14800;BME280;7491;57.750;11.970;2023-08-31T07:34:28;74378.41;;;-142.11;100.00
14800;BME280;7491;57.750;11.970;2023-08-31T07:36:56;74358.03;;;-142.11;100.00
14800;BME280;7491;57.750;11.970;2023-08-31T07:39:23;74368.22;;;-142.11;100.00
14800;BME280;7491;57.750;11.970;2023-08-31T07:41:49;74341.72;;;-142.11;100.00
14800;BME280;7491;57.750;11.970;2023-08-31T07:44:17;74353.94;;;-142.11;100.00
14800;BME280;7491;57.750;11.970;2023-08-31T07:46:44;74329.50;;;-142.11;100.00
14800;BME280;7491;57.750;11.970;2023-08-31T07:49:11;74311.16;;;-142.11;100.00
14800;BME280;7491;57.750;11.970;2023-08-31T07:51:37;74303.03;;;-142.11;100.00
14800;BME280;7491;57.750;11.970;2023-08-31T07:54:04;74296.91;;;-142.11;100.00
14800;BME280;7491;57.750;11.970;2023-08-31T07:56:31;74296.91;;;-142.11;100.00
14800;BME280;7491;57.750;11.970;2023-08-31T07:58:57;74270.41;;;-142.11;100.00
14800;BME280;7491;57.750;11.970;2023-08-31T08:01:25;74239.84;;;-142.11;100.00
14800;BME280;7491;57.750;11.970;2023-08-31T08:03:52;74221.53;;;-142.11;100.00
14800;BME280;7491;57.750;11.970;2023-08-31T08:06:19;74215.41;;;-142.11;100.00
14800;BME280;7491;57.750;11.970;2023-08-31T08:08:46;74199.13;;;-142.11;100.00
14800;BME280;7491;57.750;11.970;2023-08-31T08:11:12;74211.34;;;-142.11;100.00
14800;BME280;7491;57.750;11.970;2023-08-31T08:13:39;74186.88;;;-142.11;100.00
14800;BME280;7491;57.750;11.970;2023-08-31T08:16:06;74166.50;;;-142.11;100.00
14800;BME280;7491;57.750;11.970;2023-08-31T08:18:35;74138.00;;;-142.11;100.00
14800;BME280;7491;57.750;11.970;2023-08-31T08:21:02;74125.78;;;-142.11;100.00
14800;BME280;7491;57.750;11.970;2023-08-31T08:23:29;74140.03;;;-142.11;100.00
14800;BME280;7491;57.750;11.970;2023-08-31T08:25:56;74115.59;;;-142.11;100.00
14800;BME280;7491;57.750;11.970;2023-08-31T08:28:24;74119.66;;;-142.11;100.00
14800;BME280;7491;57.750;11.970;2023-08-31T08:30:51;74105.41;;;-142.11;100.00
14800;BME280;7491;57.750;11.970;2023-08-31T08:33:17;74099.28;;;-142.11;100.00
14800;BME280;7491;57.750;11.970;2023-08-31T08:35:45;74093.16;;;-142.11;100.00
14800;BME280;7491;57.750;11.970;2023-08-31T08:38:12;74087.06;;;-142.11;100.00
14800;BME280;7491;57.750;11.970;2023-08-31T08:40:39;74087.06;;;-142.11;100.00
14800;BME280;7491;57.750;11.970;2023-08-31T08:43:07;74076.88;;;-142.11;100.00
14800;BME280;7491;57.750;11.970;2023-08-31T08:45:36;74066.69;;;-142.11;100.00
14800;BME280;7491;57.750;11.970;2023-08-31T08:48:05;74068.72;;;-142.11;100.00
14800;BME280;7491;57.750;11.970;2023-08-31T08:50:33;74050.38;;;-142.11;100.00
14800;BME280;7491;57.750;11.970;2023-08-31T08:53:02;74042.25;;;-142.11;100.00
14800;BME280;7491;57.750;11.970;2023-08-31T08:55:29;74032.06;;;-142.11;100.00
14800;BME280;7491;57.750;11.970;2023-08-31T08:57:55;74032.06;;;-142.11;100.00
14800;BME280;7491;57.750;11.970;2023-08-31T09:00:22;74023.91;;;-142.11;100.00
14800;BME280;7491;57.750;11.970;2023-08-31T09:02:49;74015.75;;;-142.11;100.00
14800;BME280;7491;57.750;11.970;2023-08-31T09:05:16;74001.50;;;-142.11;100.00
14800;BME280;7491;57.750;11.970;2023-08-31T09:08:01;73989.28;;;-142.11;100.00
14800;BME280;7491;57.750;11.970;2023-08-31T09:10:33;73989.28;;;-142.11;100.00
14800;BME280;7491;57.750;11.970;2023-08-31T09:13:00;73977.06;;;-142.11;100.00
14800;BME280;7491;57.750;11.970;2023-08-31T09:15:36;73966.88;;;-142.11;100.00
14800;BME280;7491;57.750;11.970;2023-08-31T09:18:03;73954.66;;;-142.11;100.00
14800;BME280;7491;57.750;11.970;2023-08-31T09:20:30;73932.22;;;-142.11;100.00
14800;BME280;7491;57.750;11.970;2023-08-31T09:22:58;73915.94;;;-142.11;100.00
14800;BME280;7491;57.750;11.970;2023-08-31T09:25:26;73903.72;;;-142.11;100.00
14800;BME280;7491;57.750;11.970;2023-08-31T09:27:52;73909.81;;;-142.11;100.00
14800;BME280;7491;57.750;11.970;2023-08-31T09:30:19;73891.50;;;-142.11;100.00
14800;BME280;7491;57.750;11.970;2023-08-31T09:32:52;73873.16;;;-142.11;100.00
14800;BME280;7491;57.750;11.970;2023-08-31T09:35:18;73867.03;;;-142.11;100.00
14800;BME280;7491;57.750;11.970;2023-08-31T09:37:54;73873.16;;;-142.11;100.00
14800;BME280;7491;57.750;11.970;2023-08-31T09:40:21;73844.63;;;-142.11;100.00
14800;BME280;7491;57.750;11.970;2023-08-31T09:42:51;73844.63;;;-142.11;100.00
14800;BME280;7491;57.750;11.970;2023-08-31T09:45:18;73846.66;;;-142.11;100.00
14800;BME280;7491;57.750;11.970;2023-08-31T09:47:51;73869.09;;;-142.11;100.00
14800;BME280;7491;57.750;11.970;2023-08-31T09:50:18;73869.09;;;-142.11;100.00
14800;BME280;7491;57.750;11.970;2023-08-31T09:52:46;73850.75;;;-142.11;100.00
14800;BME280;7491;57.750;11.970;2023-08-31T09:55:15;73850.75;;;-142.11;100.00
14800;BME280;7491;57.750;11.970;2023-08-31T09:57:44;73873.16;;;-142.11;100.00
14800;BME280;7491;57.750;11.970;2023-08-31T10:00:14;73856.84;;;-142.11;100.00
14800;BME280;7491;57.750;11.970;2023-08-31T10:02:42;73858.91;;;-142.11;100.00
14800;BME280;7491;57.750;11.970;2023-08-31T10:05:10;73860.94;;;-142.11;100.00
14800;BME280;7491;57.750;11.970;2023-08-31T10:07:37;73856.84;;;-142.11;100.00
14800;BME280;7491;57.750;11.970;2023-08-31T10:10:05;73854.81;;;-142.11;100.00
14800;BME280;7491;57.750;11.970;2023-08-31T10:12:32;73881.31;;;-142.11;100.00
14800;BME280;7491;57.750;11.970;2023-08-31T10:15:00;73854.81;;;-142.11;100.00
14800;BME280;7491;57.750;11.970;2023-08-31T10:17:28;73836.50;;;-142.11;100.00
14800;BME280;7491;57.750;11.970;2023-08-31T10:19:55;73816.13;;;-142.11;100.00
14800;BME280;7491;57.750;11.970;2023-08-31T10:22:22;73787.59;;;-142.11;100.00
14800;BME280;7491;57.750;11.970;2023-08-31T10:24:59;73781.47;;;-142.11;100.00
14800;BME280;7491;57.750;11.970;2023-08-31T10:27:27;73771.31;;;-142.11;100.00
14800;BME280;7491;57.750;11.970;2023-08-31T10:29:54;73759.06;;;-142.11;100.00
14800;BME280;7491;57.750;11.970;2023-08-31T10:32:20;73757.03;;;-142.11;100.00
14800;BME280;7491;57.750;11.970;2023-08-31T10:35:08;73761.13;;;-142.11;100.00
14800;BME280;7491;57.750;11.970;2023-08-31T10:37:34;73750.94;;;-142.11;100.00
14800;BME280;7491;57.750;11.970;2023-08-31T10:40:08;73759.06;;;-142.11;100.00
14800;BME280;7491;57.750;11.970;2023-08-31T10:42:44;73746.84;;;-142.11;100.00
14800;BME280;7491;57.750;11.970;2023-08-31T10:45:12;73761.13;;;-142.11;100.00
14800;BME280;7491;57.750;11.970;2023-08-31T10:47:40;73759.06;;;-142.11;100.00
14800;BME280;7491;57.750;11.970;2023-08-31T10:50:20;73736.66;;;-142.11;100.00
14800;BME280;7491;57.750;11.970;2023-08-31T10:52:48;73710.19;;;-142.11;100.00
14800;BME280;7491;57.750;11.970;2023-08-31T10:55:15;73700.00;;;-142.11;100.00
14800;BME280;7491;57.750;11.970;2023-08-31T10:57:43;73685.75;;;-142.11;100.00
14800;BME280;7491;57.750;11.970;2023-08-31T11:00:11;73683.72;;;-142.11;100.00
14800;BME280;7491;57.750;11.970;2023-08-31T11:02:42;73679.63;;;-142.11;100.00
14800;BME280;7491;57.750;11.970;2023-08-31T11:05:10;73661.31;;;-142.11;100.00
14800;BME280;7491;57.750;11.970;2023-08-31T11:07:39;73665.38;;;-142.11;100.00
14800;BME280;7491;57.750;11.970;2023-08-31T11:10:08;73645.00;;;-142.11;100.00
14800;BME280;7491;57.750;11.970;2023-08-31T11:12:34;73632.78;;;-142.11;100.00
14800;BME280;7491;57.750;11.970;2023-08-31T11:15:01;73630.75;;;-142.11;100.00
14800;BME280;7491;57.750;11.970;2023-08-31T11:17:29;73610.38;;;-142.11;100.00
14800;BME280;7491;57.750;11.970;2023-08-31T11:19:56;73608.34;;;-142.11;100.00
14800;BME280;7491;57.750;11.970;2023-08-31T11:22:23;73645.00;;;-142.11;100.00
14800;BME280;7491;57.750;11.970;2023-08-31T11:24:51;73624.63;;;-142.11;100.00
14800;BME280;7491;57.750;11.970;2023-08-31T11:27:19;73626.66;;;-142.11;100.00
14800;BME280;7491;57.750;11.970;2023-08-31T11:29:46;73632.78;;;-142.11;100.00
14800;BME280;7491;57.750;11.970;2023-08-31T11:32:13;73626.66;;;-142.11;100.00
14800;BME280;7491;57.750;11.970;2023-08-31T11:34:40;73632.78;;;-142.11;100.00
14800;BME280;7491;57.750;11.970;2023-08-31T11:37:08;73667.41;;;-142.11;100.00
14800;BME280;7491;57.750;11.970;2023-08-31T11:39:36;73663.34;;;-142.11;100.00
14800;BME280;7491;57.750;11.970;2023-08-31T11:42:06;73681.66;;;-142.11;100.00
14800;BME280;7491;57.750;11.970;2023-08-31T11:44:33;73685.75;;;-142.11;100.00
14800;BME280;7491;57.750;11.970;2023-08-31T11:47:01;73714.25;;;-142.11;100.00
14800;BME280;7491;57.750;11.970;2023-08-31T11:49:28;73728.53;;;-142.11;100.00
14800;BME280;7491;57.750;11.970;2023-08-31T11:51:55;73752.97;;;-142.11;100.00
14800;BME280;7491;57.750;11.970;2023-08-31T11:54:24;73787.59;;;-142.11;100.00
14800;BME280;7491;57.750;11.970;2023-08-31T11:56:51;73783.53;;;-142.11;100.00
14800;BME280;7491;57.750;11.970;2023-08-31T11:59:19;73787.59;;;-142.11;100.00
14800;BME280;7491;57.750;11.970;2023-08-31T12:01:48;73828.34;;;-142.11;100.00
14800;BME280;7491;57.750;11.970;2023-08-31T12:04:16;73848.72;;;-142.11;100.00
14800;BME280;7491;57.750;11.970;2023-08-31T12:06:46;73891.50;;;-142.11;100.00
14800;BME280;7491;57.750;11.970;2023-08-31T12:09:14;73987.25;;;-142.11;100.00
14800;BME280;7491;57.750;11.970;2023-08-31T12:11:40;73985.19;;;-142.11;100.00
14800;BME280;7491;57.750;11.970;2023-08-31T12:14:20;74019.84;;;-142.11;100.00
14800;BME280;7491;57.750;11.970;2023-08-31T12:16:46;74021.88;;;-142.11;100.00
14800;BME280;7491;57.750;11.970;2023-08-31T12:19:13;74021.88;;;-142.11;100.00
14800;BME280;7491;57.750;11.970;2023-08-31T12:21:42;74042.25;;;-142.11;100.00
14800;BME280;7491;57.750;11.970;2023-08-31T12:24:09;74058.53;;;-142.11;100.00
14800;BME280;7491;57.750;11.970;2023-08-31T12:26:36;74109.47;;;-142.11;100.00
14800;BME280;7491;57.750;11.970;2023-08-31T12:29:03;74133.91;;;-142.11;100.00
14800;BME280;7491;57.750;11.970;2023-08-31T12:31:32;74164.47;;;-142.11;100.00
14800;BME280;7491;57.750;11.970;2023-08-31T12:33:59;74178.75;;;-142.11;100.00